sensor_id;sensor_type;location;lat;lon;timestamp;temperature;humidity
5196;DHT22;2617;51.006;12.436;2023-11-18T00:04:44;4.00;99.90
5196;DHT22;2617;51.006;12.436;2023-11-18T00:09:46;4.00;99.90
5196;DHT22;2617;51.006;12.436;2023-11-18T00:14:48;4.00;99.90
5196;DHT22;2617;51.006;12.436;2023-11-18T00:19:50;4.10;99.90
5196;DHT22;2617;51.006;12.436;2023-11-18T00:24:52;4.00;99.90
5196;DHT22;2617;51.006;12.436;2023-11-18T00:29:54;4.00;99.90
5196;DHT22;2617;51.006;12.436;2023-11-18T00:34:56;4.00;99.90
5196;DHT22;2617;51.006;12.436;2023-11-18T00:39:58;4.00;99.90
5196;DHT22;2617;51.006;12.436;2023-11-18T00:44:59;4.00;99.90
5196;DHT22;2617;51.006;12.436;2023-11-18T00:50:01;4.00;99.90
5196;DHT22;2617;51.006;12.436;2023-11-18T00:55:03;3.90;99.90
5196;DHT22;2617;51.006;12.436;2023-11-18T01:00:08;3.90;99.90
5196;DHT22;2617;51.006;12.436;2023-11-18T01:05:10;3.90;99.90
5196;DHT22;2617;51.006;12.436;2023-11-18T01:10:12;3.90;99.90
5196;DHT22;2617;51.006;12.436;2023-11-18T01:15:14;3.90;99.90
5196;DHT22;2617;51.006;12.436;2023-11-18T01:20:16;3.80;99.90
5196;DHT22;2617;51.006;12.436;2023-11-18T01:25:18;3.80;99.90
5196;DHT22;2617;51.006;12.436;2023-11-18T01:30:20;3.70;99.90
5196;DHT22;2617;51.006;12.436;2023-11-18T01:35:21;3.60;99.90
5196;DHT22;2617;51.006;12.436;2023-11-18T01:40:23;3.50;99.90
5196;DHT22;2617;51.006;12.436;2023-11-18T01:45:25;3.30;99.90
5196;DHT22;2617;51.006;12.436;2023-11-18T01:50:27;3.20;99.90
5196;DHT22;2617;51.006;12.436;2023-11-18T01:55:28;3.00;99.90
5196;DHT22;2617;51.006;12.436;2023-11-18T02:00:30;2.90;99.90
5196;DHT22;2617;51.006;12.436;2023-11-18T02:05:32;2.80;99.90
5196;DHT22;2617;51.006;12.436;2023-11-18T02:10:36;2.80;99.90
5196;DHT22;2617;51.006;12.436;2023-11-18T02:15:36;2.80;99.90
5196;DHT22;2617;51.006;12.436;2023-11-18T02:20:38;2.90;99.90
5196;DHT22;2617;51.006;12.436;2023-11-18T02:25:45;2.90;99.90
5196;DHT22;2617;51.006;12.436;2023-11-18T02:30:46;3.00;99.90
5196;DHT22;2617;51.006;12.436;2023-11-18T02:35:52;3.00;99.90
5196;DHT22;2617;51.006;12.436;2023-11-18T02:40:53;3.10;99.90
5196;DHT22;2617;51.006;12.436;2023-11-18T02:45:55;3.10;99.90
5196;DHT22;2617;51.006;12.436;2023-11-18T02:50:57;3.00;99.90
5196;DHT22;2617;51.006;12.436;2023-11-18T02:55:58;3.00;99.90
5196;DHT22;2617;51.006;12.436;2023-11-18T03:01:00;2.90;99.90
5196;DHT22;2617;51.006;12.436;2023-11-18T03:06:02;2.80;99.90
5196;DHT22;2617;51.006;12.436;2023-11-18T03:11:04;2.70;99.90
5196;DHT22;2617;51.006;12.436;2023-11-18T03:16:07;2.70;99.90
5196;DHT22;2617;51.006;12.436;2023-11-18T03:21:12;2.60;99.90
5196;DHT22;2617;51.006;12.436;2023-11-18T03:26:14;2.70;99.90
5196;DHT22;2617;51.006;12.436;2023-11-18T03:31:16;2.90;99.90
5196;DHT22;2617;51.006;12.436;2023-11-18T03:36:18;2.80;99.90
5196;DHT22;2617;51.006;12.436;2023-11-18T03:41:21;3.00;99.90
5196;DHT22;2617;51.006;12.436;2023-11-18T03:46:22;3.00;99.90
5196;DHT22;2617;51.006;12.436;2023-11-18T03:51:25;3.10;99.90
5196;DHT22;2617;51.006;12.436;2023-11-18T03:56:26;3.10;99.90
5196;DHT22;2617;51.006;12.436;2023-11-18T04:01:28;3.10;99.90
5196;DHT22;2617;51.006;12.436;2023-11-18T04:06:31;3.20;99.90
5196;DHT22;2617;51.006;12.436;2023-11-18T04:11:32;3.20;99.90
5196;DHT22;2617;51.006;12.436;2023-11-18T04:16:34;3.20;99.90
5196;DHT22;2617;51.006;12.436;2023-11-18T04:21:36;3.20;99.90
5196;DHT22;2617;51.006;12.436;2023-11-18T04:26:37;3.20;99.90
5196;DHT22;2617;51.006;12.436;2023-11-18T04:31:39;3.30;99.90
5196;DHT22;2617;51.006;12.436;2023-11-18T04:36:41;3.30;99.90
5196;DHT22;2617;51.006;12.436;2023-11-18T04:41:43;3.30;99.90
5196;DHT22;2617;51.006;12.436;2023-11-18T04:46:45;3.40;99.90
5196;DHT22;2617;51.006;12.436;2023-11-18T04:51:47;3.40;99.90
5196;DHT22;2617;51.006;12.436;2023-11-18T04:56:49;3.40;99.90
5196;DHT22;2617;51.006;12.436;2023-11-18T05:01:50;3.40;99.90
5196;DHT22;2617;51.006;12.436;2023-11-18T05:06:52;3.40;99.90
5196;DHT22;2617;51.006;12.436;2023-11-18T05:11:55;3.40;99.90
5196;DHT22;2617;51.006;12.436;2023-11-18T05:16:56;3.40;99.90
5196;DHT22;2617;51.006;12.436;2023-11-18T05:21:59;3.40;99.90
5196;DHT22;2617;51.006;12.436;2023-11-18T05:27:00;3.40;99.90
5196;DHT22;2617;51.006;12.436;2023-11-18T05:32:03;3.40;99.90
5196;DHT22;2617;51.006;12.436;2023-11-18T05:37:05;3.40;99.90
5196;DHT22;2617;51.006;12.436;2023-11-18T05:42:07;3.40;99.90
5196;DHT22;2617;51.006;12.436;2023-11-18T05:47:09;3.40;99.90
5196;DHT22;2617;51.006;12.436;2023-11-18T05:52:14;3.40;99.90
5196;DHT22;2617;51.006;12.436;2023-11-18T05:57:16;3.40;99.90
5196;DHT22;2617;51.006;12.436;2023-11-18T06:02:18;3.40;99.90
5196;DHT22;2617;51.006;12.436;2023-11-18T06:07:21;3.40;99.90
5196;DHT22;2617;51.006;12.436;2023-11-18T06:12:22;3.40;99.90
5196;DHT22;2617;51.006;12.436;2023-11-18T06:17:24;3.30;99.90
5196;DHT22;2617;51.006;12.436;2023-11-18T06:22:26;3.40;99.90
5196;DHT22;2617;51.006;12.436;2023-11-18T06:27:28;3.40;99.90
5196;DHT22;2617;51.006;12.436;2023-11-18T06:32:29;3.30;99.90
5196;DHT22;2617;51.006;12.436;2023-11-18T06:37:32;3.30;99.90
5196;DHT22;2617;51.006;12.436;2023-11-18T06:42:34;3.30;99.90
5196;DHT22;2617;51.006;12.436;2023-11-18T06:47:37;3.30;99.90
5196;DHT22;2617;51.006;12.436;2023-11-18T06:52:39;3.30;99.90
5196;DHT22;2617;51.006;12.436;2023-11-18T06:57:41;3.30;99.90
5196;DHT22;2617;51.006;12.436;2023-11-18T07:02:44;3.30;99.90
5196;DHT22;2617;51.006;12.436;2023-11-18T07:07:45;3.30;99.90
5196;DHT22;2617;51.006;12.436;2023-11-18T07:12:47;3.40;99.90
5196;DHT22;2617;51.006;12.436;2023-11-18T07:17:49;3.40;99.90
5196;DHT22;2617;51.006;12.436;2023-11-18T07:22:51;3.40;99.90
5196;DHT22;2617;51.006;12.436;2023-11-18T07:27:53;3.50;99.90
5196;DHT22;2617;51.006;12.436;2023-11-18T07:32:55;3.60;99.90
5196;DHT22;2617;51.006;12.436;2023-11-18T07:37:57;3.60;99.90
5196;DHT22;2617;51.006;12.436;2023-11-18T07:42:59;3.60;99.90
5196;DHT22;2617;51.006;12.436;2023-11-18T07:48:00;3.70;99.90
5196;DHT22;2617;51.006;12.436;2023-11-18T07:53:03;3.90;99.90
5196;DHT22;2617;51.006;12.436;2023-11-18T07:58:06;3.90;99.90
5196;DHT22;2617;51.006;12.436;2023-11-18T08:03:07;3.90;99.90
5196;DHT22;2617;51.006;12.436;2023-11-18T08:08:10;4.00;99.90
5196;DHT22;2617;51.006;12.436;2023-11-18T08:13:12;4.10;99.90
5196;DHT22;2617;51.006;12.436;2023-11-18T08:18:14;4.10;99.90
5196;DHT22;2617;51.006;12.436;2023-11-18T08:23:16;4.10;99.90
5196;DHT22;2617;51.006;12.436;2023-11-18T08:28:19;4.10;99.90
5196;DHT22;2617;51.006;12.436;2023-11-18T08:33:22;4.20;99.90
5196;DHT22;2617;51.006;12.436;2023-11-18T08:38:24;4.40;99.90
5196;DHT22;2617;51.006;12.436;2023-11-18T08:43:26;4.80;99.90
5196;DHT22;2617;51.006;12.436;2023-11-18T08:48:29;4.70;99.90
5196;DHT22;2617;51.006;12.436;2023-11-18T08:53:30;5.00;99.90
5196;DHT22;2617;51.006;12.436;2023-11-18T08:58:32;5.20;99.90
5196;DHT22;2617;51.006;12.436;2023-11-18T09:03:34;5.30;99.90
5196;DHT22;2617;51.006;12.436;2023-11-18T09:08:36;5.30;99.90
5196;DHT22;2617;51.006;12.436;2023-11-18T09:13:38;5.50;99.90
5196;DHT22;2617;51.006;12.436;2023-11-18T09:18:41;5.50;99.90
5196;DHT22;2617;51.006;12.436;2023-11-18T09:23:43;5.50;99.90
5196;DHT22;2617;51.006;12.436;2023-11-18T09:28:45;5.50;99.90
5196;DHT22;2617;51.006;12.436;2023-11-18T09:33:47;5.50;99.90
5196;DHT22;2617;51.006;12.436;2023-11-18T09:38:48;5.40;99.90
5196;DHT22;2617;51.006;12.436;2023-11-18T09:43:52;5.40;99.90
5196;DHT22;2617;51.006;12.436;2023-11-18T09:54:18;5.50;99.90
5196;DHT22;2617;51.006;12.436;2023-11-18T09:59:22;5.60;99.90
5196;DHT22;2617;51.006;12.436;2023-11-18T10:04:20;5.60;99.90
5196;DHT22;2617;51.006;12.436;2023-11-18T10:09:25;5.80;99.90
5196;DHT22;2617;51.006;12.436;2023-11-18T10:14:27;6.00;99.90
5196;DHT22;2617;51.006;12.436;2023-11-18T10:19:48;6.20;99.90
5196;DHT22;2617;51.006;12.436;2023-11-18T10:24:42;6.30;99.90
5196;DHT22;2617;51.006;12.436;2023-11-18T10:29:32;6.30;99.90
5196;DHT22;2617;51.006;12.436;2023-11-18T10:34:34;6.50;99.90
5196;DHT22;2617;51.006;12.436;2023-11-18T10:39:35;6.60;99.90
5196;DHT22;2617;51.006;12.436;2023-11-18T10:44:37;6.80;99.90
5196;DHT22;2617;51.006;12.436;2023-11-18T10:49:39;7.00;99.90
5196;DHT22;2617;51.006;12.436;2023-11-18T10:59:59;7.10;99.90
5196;DHT22;2617;51.006;12.436;2023-11-18T11:05:01;7.10;99.90
5196;DHT22;2617;51.006;12.436;2023-11-18T11:10:02;7.00;99.90
5196;DHT22;2617;51.006;12.436;2023-11-18T11:15:11;7.10;99.90
5196;DHT22;2617;51.006;12.436;2023-11-18T11:20:11;7.00;99.90
5196;DHT22;2617;51.006;12.436;2023-11-18T11:25:16;7.20;99.90
5196;DHT22;2617;51.006;12.436;2023-11-18T11:30:23;7.40;99.90
5196;DHT22;2617;51.006;12.436;2023-11-18T11:35:30;7.60;99.90
5196;DHT22;2617;51.006;12.436;2023-11-18T11:40:31;7.70;99.90
5196;DHT22;2617;51.006;12.436;2023-11-18T11:45:33;7.80;99.90
5196;DHT22;2617;51.006;12.436;2023-11-18T11:50:35;7.80;99.90
5196;DHT22;2617;51.006;12.436;2023-11-18T11:55:52;7.90;99.90
5196;DHT22;2617;51.006;12.436;2023-11-18T12:00:53;8.00;99.90
5196;DHT22;2617;51.006;12.436;2023-11-18T12:05:56;8.00;99.90
5196;DHT22;2617;51.006;12.436;2023-11-18T12:10:58;7.90;99.90
5196;DHT22;2617;51.006;12.436;2023-11-18T12:16:00;7.90;99.90
5196;DHT22;2617;51.006;12.436;2023-11-18T12:21:02;8.10;99.90
5196;DHT22;2617;51.006;12.436;2023-11-18T12:26:37;8.20;99.90
5196;DHT22;2617;51.006;12.436;2023-11-18T12:31:07;8.30;99.90
5196;DHT22;2617;51.006;12.436;2023-11-18T12:36:22;8.20;99.90
5196;DHT22;2617;51.006;12.436;2023-11-18T12:46:50;8.00;99.90
5196;DHT22;2617;51.006;12.436;2023-11-18T12:51:52;8.00;99.90
5196;DHT22;2617;51.006;12.436;2023-11-18T12:56:55;8.20;99.90
5196;DHT22;2617;51.006;12.436;2023-11-18T13:01:57;8.40;99.90
5196;DHT22;2617;51.006;12.436;2023-11-18T13:06:59;8.40;99.90
5196;DHT22;2617;51.006;12.436;2023-11-18T13:12:01;8.10;99.90
5196;DHT22;2617;51.006;12.436;2023-11-18T13:17:03;7.90;99.90
5196;DHT22;2617;51.006;12.436;2023-11-18T13:22:10;7.90;99.90
5196;DHT22;2617;51.006;12.436;2023-11-18T13:27:10;7.80;99.90
5196;DHT22;2617;51.006;12.436;2023-11-18T13:32:11;7.70;99.90
5196;DHT22;2617;51.006;12.436;2023-11-18T13:37:14;7.40;99.90
5196;DHT22;2617;51.006;12.436;2023-11-18T13:42:25;7.40;99.90
5196;DHT22;2617;51.006;12.436;2023-11-18T13:47:27;7.30;99.90
5196;DHT22;2617;51.006;12.436;2023-11-18T13:52:29;7.30;99.90
5196;DHT22;2617;51.006;12.436;2023-11-18T13:57:31;7.20;99.90
5196;DHT22;2617;51.006;12.436;2023-11-18T14:02:33;7.20;99.90
5196;DHT22;2617;51.006;12.436;2023-11-18T14:07:37;7.20;99.90
5196;DHT22;2617;51.006;12.436;2023-11-18T14:12:36;7.10;99.90
5196;DHT22;2617;51.006;12.436;2023-11-18T14:17:39;6.90;99.90
5196;DHT22;2617;51.006;12.436;2023-11-18T14:22:40;6.80;99.90
5196;DHT22;2617;51.006;12.436;2023-11-18T14:27:43;6.70;99.90
5196;DHT22;2617;51.006;12.436;2023-11-18T14:32:45;6.70;99.90
5196;DHT22;2617;51.006;12.436;2023-11-18T14:37:47;6.50;99.90
5196;DHT22;2617;51.006;12.436;2023-11-18T14:42:50;6.40;99.90
5196;DHT22;2617;51.006;12.436;2023-11-18T14:47:51;6.30;99.90
5196;DHT22;2617;51.006;12.436;2023-11-18T14:52:53;6.30;99.90
5196;DHT22;2617;51.006;12.436;2023-11-18T14:58:04;6.00;99.90
5196;DHT22;2617;51.006;12.436;2023-11-18T15:03:07;5.80;99.90
5196;DHT22;2617;51.006;12.436;2023-11-18T15:08:09;5.80;99.90
5196;DHT22;2617;51.006;12.436;2023-11-18T15:13:10;5.60;99.90
5196;DHT22;2617;51.006;12.436;2023-11-18T15:18:14;5.50;99.90
5196;DHT22;2617;51.006;12.436;2023-11-18T15:23:16;5.40;99.90
5196;DHT22;2617;51.006;12.436;2023-11-18T15:28:18;5.30;99.90
5196;DHT22;2617;51.006;12.436;2023-11-18T15:33:20;5.30;99.90
5196;DHT22;2617;51.006;12.436;2023-11-18T15:38:22;5.20;99.90
5196;DHT22;2617;51.006;12.436;2023-11-18T15:43:24;5.30;99.90
5196;DHT22;2617;51.006;12.436;2023-11-18T15:48:26;5.20;99.90
5196;DHT22;2617;51.006;12.436;2023-11-18T15:53:27;5.20;99.90
5196;DHT22;2617;51.006;12.436;2023-11-18T15:58:29;5.10;99.90
5196;DHT22;2617;51.006;12.436;2023-11-18T16:03:31;5.20;99.90
5196;DHT22;2617;51.006;12.436;2023-11-18T16:08:33;5.10;99.90
5196;DHT22;2617;51.006;12.436;2023-11-18T16:13:34;5.20;99.90
5196;DHT22;2617;51.006;12.436;2023-11-18T16:18:36;5.10;99.90
5196;DHT22;2617;51.006;12.436;2023-11-18T16:23:38;5.10;99.90
5196;DHT22;2617;51.006;12.436;2023-11-18T16:28:39;5.20;99.90
5196;DHT22;2617;51.006;12.436;2023-11-18T16:33:41;5.10;99.90
5196;DHT22;2617;51.006;12.436;2023-11-18T16:38:43;5.10;99.90
5196;DHT22;2617;51.006;12.436;2023-11-18T16:43:45;5.10;99.90
5196;DHT22;2617;51.006;12.436;2023-11-18T16:48:47;5.20;99.90
5196;DHT22;2617;51.006;12.436;2023-11-18T16:53:49;5.20;99.90
5196;DHT22;2617;51.006;12.436;2023-11-18T16:58:50;5.10;99.90
5196;DHT22;2617;51.006;12.436;2023-11-18T17:03:52;5.10;99.90
5196;DHT22;2617;51.006;12.436;2023-11-18T17:08:54;5.10;99.90
5196;DHT22;2617;51.006;12.436;2023-11-18T17:13:56;5.10;99.90
5196;DHT22;2617;51.006;12.436;2023-11-18T17:18:58;5.10;99.90
5196;DHT22;2617;51.006;12.436;2023-11-18T17:24:00;5.10;99.90
5196;DHT22;2617;51.006;12.436;2023-11-18T17:29:01;5.10;99.90
5196;DHT22;2617;51.006;12.436;2023-11-18T17:34:03;5.10;99.90
5196;DHT22;2617;51.006;12.436;2023-11-18T17:39:06;5.10;99.90
5196;DHT22;2617;51.006;12.436;2023-11-18T17:44:07;5.00;99.90
5196;DHT22;2617;51.006;12.436;2023-11-18T17:49:10;5.00;99.90
5196;DHT22;2617;51.006;12.436;2023-11-18T17:54:11;5.00;99.90
5196;DHT22;2617;51.006;12.436;2023-11-18T17:59:13;5.00;99.90
5196;DHT22;2617;51.006;12.436;2023-11-18T18:04:16;5.00;99.90
5196;DHT22;2617;51.006;12.436;2023-11-18T18:09:17;5.00;99.90
5196;DHT22;2617;51.006;12.436;2023-11-18T18:14:19;5.00;99.90
5196;DHT22;2617;51.006;12.436;2023-11-18T18:19:22;5.00;99.90
5196;DHT22;2617;51.006;12.436;2023-11-18T18:24:24;5.00;99.90
5196;DHT22;2617;51.006;12.436;2023-11-18T18:29:25;5.00;99.90
5196;DHT22;2617;51.006;12.436;2023-11-18T18:34:28;5.00;99.90
5196;DHT22;2617;51.006;12.436;2023-11-18T18:39:30;5.00;99.90
5196;DHT22;2617;51.006;12.436;2023-11-18T18:44:32;5.00;99.90
5196;DHT22;2617;51.006;12.436;2023-11-18T18:49:34;5.00;99.90
5196;DHT22;2617;51.006;12.436;2023-11-18T18:54:36;5.00;99.90
5196;DHT22;2617;51.006;12.436;2023-11-18T18:59:38;4.90;99.90
5196;DHT22;2617;51.006;12.436;2023-11-18T19:04:40;5.00;99.90
5196;DHT22;2617;51.006;12.436;2023-11-18T19:09:41;4.90;99.90
5196;DHT22;2617;51.006;12.436;2023-11-18T19:14:43;4.90;99.90
5196;DHT22;2617;51.006;12.436;2023-11-18T19:19:45;4.90;99.90
5196;DHT22;2617;51.006;12.436;2023-11-18T19:24:46;4.90;99.90
5196;DHT22;2617;51.006;12.436;2023-11-18T19:29:49;4.90;99.90
5196;DHT22;2617;51.006;12.436;2023-11-18T19:34:51;4.90;99.90
5196;DHT22;2617;51.006;12.436;2023-11-18T19:39:52;4.90;99.90
5196;DHT22;2617;51.006;12.436;2023-11-18T19:44:54;4.90;99.90
5196;DHT22;2617;51.006;12.436;2023-11-18T19:49:57;4.90;99.90
5196;DHT22;2617;51.006;12.436;2023-11-18T19:54:58;4.90;99.90
5196;DHT22;2617;51.006;12.436;2023-11-18T20:00:00;4.90;99.90
5196;DHT22;2617;51.006;12.436;2023-11-18T20:05:02;5.00;99.90
5196;DHT22;2617;51.006;12.436;2023-11-18T20:10:06;5.00;99.90
5196;DHT22;2617;51.006;12.436;2023-11-18T20:15:08;5.00;99.90
5196;DHT22;2617;51.006;12.436;2023-11-18T20:20:10;5.10;99.90
5196;DHT22;2617;51.006;12.436;2023-11-18T20:25:12;5.10;99.90
5196;DHT22;2617;51.006;12.436;2023-11-18T20:30:14;5.10;99.90
5196;DHT22;2617;51.006;12.436;2023-11-18T20:35:15;5.00;99.90
5196;DHT22;2617;51.006;12.436;2023-11-18T20:40:17;4.90;99.90
5196;DHT22;2617;51.006;12.436;2023-11-18T20:45:19;4.90;99.90
5196;DHT22;2617;51.006;12.436;2023-11-18T20:50:21;4.90;99.90
5196;DHT22;2617;51.006;12.436;2023-11-18T20:55:23;4.80;99.90
5196;DHT22;2617;51.006;12.436;2023-11-18T21:00:25;4.80;99.90
5196;DHT22;2617;51.006;12.436;2023-11-18T21:05:27;4.80;99.90
5196;DHT22;2617;51.006;12.436;2023-11-18T21:10:28;4.80;99.90
5196;DHT22;2617;51.006;12.436;2023-11-18T21:15:32;4.80;99.90
5196;DHT22;2617;51.006;12.436;2023-11-18T21:20:36;4.70;99.90
5196;DHT22;2617;51.006;12.436;2023-11-18T21:25:36;4.80;99.90
5196;DHT22;2617;51.006;12.436;2023-11-18T21:30:39;4.70;99.90
5196;DHT22;2617;51.006;12.436;2023-11-18T21:35:40;4.70;99.90
5196;DHT22;2617;51.006;12.436;2023-11-18T21:40:42;4.70;99.90
5196;DHT22;2617;51.006;12.436;2023-11-18T21:45:44;4.70;99.90
5196;DHT22;2617;51.006;12.436;2023-11-18T21:50:46;4.70;99.90
5196;DHT22;2617;51.006;12.436;2023-11-18T21:55:47;4.70;99.90
5196;DHT22;2617;51.006;12.436;2023-11-18T22:00:50;4.60;99.90
5196;DHT22;2617;51.006;12.436;2023-11-18T22:05:51;4.60;99.90
5196;DHT22;2617;51.006;12.436;2023-11-18T22:10:52;4.60;99.90
5196;DHT22;2617;51.006;12.436;2023-11-18T22:15:55;4.50;99.90
5196;DHT22;2617;51.006;12.436;2023-11-18T22:20:57;4.50;99.90
5196;DHT22;2617;51.006;12.436;2023-11-18T22:25:58;4.50;99.90
5196;DHT22;2617;51.006;12.436;2023-11-18T22:31:00;4.50;99.90
5196;DHT22;2617;51.006;12.436;2023-11-18T22:36:02;4.50;99.90
5196;DHT22;2617;51.006;12.436;2023-11-18T22:41:04;4.50;99.90
5196;DHT22;2617;51.006;12.436;2023-11-18T22:46:07;4.40;99.90
5196;DHT22;2617;51.006;12.436;2023-11-18T22:51:09;4.40;99.90
5196;DHT22;2617;51.006;12.436;2023-11-18T22:56:11;4.40;99.90
5196;DHT22;2617;51.006;12.436;2023-11-18T23:01:13;4.40;99.90
5196;DHT22;2617;51.006;12.436;2023-11-18T23:06:15;4.40;99.90
5196;DHT22;2617;51.006;12.436;2023-11-18T23:11:17;4.40;99.90
5196;DHT22;2617;51.006;12.436;2023-11-18T23:16:18;4.40;99.90
5196;DHT22;2617;51.006;12.436;2023-11-18T23:21:21;4.40;99.90
5196;DHT22;2617;51.006;12.436;2023-11-18T23:26:22;4.40;99.90
5196;DHT22;2617;51.006;12.436;2023-11-18T23:31:24;4.40;99.90
5196;DHT22;2617;51.006;12.436;2023-11-18T23:36:26;4.40;99.90
5196;DHT22;2617;51.006;12.436;2023-11-18T23:41:28;4.40;99.90
5196;DHT22;2617;51.006;12.436;2023-11-18T23:46:29;4.40;99.90
5196;DHT22;2617;51.006;12.436;2023-11-18T23:51:31;4.40;99.90
5196;DHT22;2617;51.006;12.436;2023-11-18T23:56:33;4.50;99.90
